ADDS METAR Data INFO
IDs: Format: Raw Decoded Include TAF

Data at: 1832 UTC 16 Dec 2017

KHUL 161753Z AUTO 29009KT 10SM CLR M09/M17 A2974 RMK AO2 SLP082 T10941172 11094 21167 56010
KHUL 161653Z AUTO 29007KT 10SM CLR M10/M16 A2974 RMK AO2 SLP084 T11001161
KHUL 161553Z AUTO 31006KT 10SM CLR M11/M16 A2976 RMK AO2 SLP090 T11111161
KHUL 161453Z AUTO 33006KT 10SM CLR M12/M16 A2977 RMK AO2 SLP093 T11171161 51012
KHUL 161353Z AUTO 36005KT 10SM FEW120 M13/M16 A2976 RMK AO2 SLP090 T11331156
KHUL 161253Z AUTO 02003KT 10SM FEW095 M17/M18 A2975 RMK AO2 SLP086 T11671178
KHUL 161153Z AUTO 00000KT 10SM FEW055 SCT070 M14/M16 A2973 RMK AO2 SNE30 SLP080 P0000 60000 I6000 T11441161 11133 21156 53005
KHUL 161053Z AUTO 00000KT 4SM -SN BR BKN048 OVC075 M14/M16 A2973 RMK AO2 SNB44 SLP078 P0000 T11391156
KHUL 160953Z AUTO 00000KT 10SM OVC065 M14/M15 A2970 RMK AO2 SLP071 T11391150
KHUL 160853Z AUTO 01003KT 10SM BKN055 OVC070 M14/M15 A2972 RMK AO2 SLP075 I3000 T11391150 58019
KHUL 160753Z AUTO 35003KT 10SM OVC070 M14/M16 A2974 RMK AO2 SLP080 I1000 T11441156
KHUL 160653Z AUTO 00000KT 10SM OVC090 M16/M17 A2976 RMK AO2 SLP090 T11561167
KHUL 160553Z AUTO 00000KT 10SM BKN110 M15/M17 A2977 RMK AO2 SLP094 T11501167 11111 21150 58006
KHUL 160453Z AUTO 00000KT 10SM BKN110 M14/M15 A2978 RMK AO2 SLP098 T11441150 410831189
KHUL 160353Z AUTO 00000KT 10SM BKN120 M13/M14 A2979 RMK AO2 SLP099 T11281144
KHUL 160253Z AUTO 00000KT 10SM OVC120 M12/M14 A2979 RMK AO2 SLP100 T11221139 58020
KHUL 160153Z AUTO 00000KT 10SM FEW120 M11/M14 A2981 RMK AO2 SLP108 T11111139
KHUL 160053Z AUTO 20004KT 10SM SCT120 M11/M14 A2984 RMK AO2 SLP117 T11111139
KHUL 152353Z AUTO 19004KT 10SM OVC110 M11/M14 A2985 RMK AO2 SLP122 T11111144 11083 21133 58007
KHUL 152253Z AUTO 18003KT 10SM CLR M11/M16 A2987 RMK AO2 SLP125 T11111156
KHUL 152153Z AUTO 18003KT 10SM CLR M11/M16 A2987 RMK AO2 SLP128 T11061156
KHUL 152053Z AUTO 22007KT 10SM CLR M09/M16 A2987 RMK AO2 SLP128 T10941156 53005
KHUL 151953Z AUTO 23007KT 10SM CLR M08/M16 A2987 RMK AO2 SLP126 T10831156
KHUL 151853Z AUTO 23009KT 10SM CLR M08/M16 A2986 RMK AO2 SLP124 T10831161
KHUL 151753Z AUTO 24010KT 10SM CLR M09/M17 A2986 RMK AO2 SLP124 T10891167 11083 21172 56006
KHUL 151653Z AUTO 25012KT 10SM CLR M09/M18 A2987 RMK AO2 SLP125 T10891178
KHUL 151553Z AUTO 26005G16KT 10SM CLR M11/M19 A2987 RMK AO2 SLP127 T11061189
KHUL 151453Z AUTO 24011KT 10SM CLR M13/M19 A2988 RMK AO2 SLP130 T11281189 51023
KHUL 151353Z AUTO 23010KT 10SM CLR M14/M20 A2986 RMK AO2 SLP126 T11441200
KHUL 151253Z AUTO 21005KT 10SM CLR M17/M21 A2983 RMK AO2 SLP115 T11671206
KHUL 151153Z AUTO 22007KT 10SM CLR M17/M21 A2981 RMK AO2 SLP109 T11721206 11150 21189 53021
KHUL 151053Z AUTO 23008G16KT 10SM CLR M16/M21 A2979 RMK AO2 SLP102 T11611206
KHUL 150953Z AUTO 26009KT 10SM CLR M16/M21 A2976 RMK AO2 SLP090 T11611206
KHUL 150853Z AUTO 26010G20KT 10SM CLR M16/M20 A2975 RMK AO2 SLP086 T11561200 51020
KHUL 150753Z AUTO 00000KT 10SM CLR M17/M20 A2973 RMK AO2 SLP081 T11721200
KHUL 150653Z AUTO 21005KT 10SM CLR M16/M19 A2972 RMK AO2 SLP077 T11611194